createdAt,value
2018-02-08T00:02:01.778Z,53.03
2018-02-08T00:04:29.208Z,42.42
2018-02-08T00:06:56.656Z,41.08
2018-02-08T00:09:24.093Z,48.28
2018-02-08T00:11:52.306Z,45.70
2018-02-08T00:14:19.730Z,40.83
2018-02-08T00:16:47.946Z,48.35
2018-02-08T00:19:15.377Z,49.20
2018-02-08T00:21:42.818Z,45.67
2018-02-08T00:24:11.201Z,41.97
2018-02-08T00:26:39.399Z,55.22
2018-02-08T00:29:06.837Z,54.22
2018-02-08T00:31:35.031Z,49.75
2018-02-08T00:34:02.490Z,44.47
2018-02-08T00:36:29.925Z,34.38
2018-02-08T00:38:58.150Z,48.80
2018-02-08T00:41:25.576Z,44.03
2018-02-08T00:43:53.008Z,50.95
2018-02-08T00:46:21.208Z,44.78
2018-02-08T00:48:48.643Z,47.45
2018-02-08T00:51:16.854Z,45.65
2018-02-08T00:53:44.309Z,48.17
2018-02-08T00:56:11.827Z,46.42
2018-02-08T00:58:40.045Z,42.55
2018-02-08T01:01:07.470Z,35.75
2018-02-08T01:03:34.904Z,45.40
2018-02-08T01:06:02.351Z,43.70
2018-02-08T01:08:29.799Z,45.22
2018-02-08T01:10:57.241Z,46.05
2018-02-08T01:13:24.706Z,39.42
2018-02-08T01:15:52.149Z,39.65
2018-02-08T01:18:19.600Z,37.03
2018-02-08T01:20:47.045Z,44.78
2018-02-08T01:23:14.501Z,47.72
2018-02-08T01:25:41.932Z,45.33
2018-02-08T01:28:10.151Z,51.47
2018-02-08T01:30:37.586Z,45.90
2018-02-08T01:33:05.023Z,44.80
2018-02-08T01:35:33.219Z,46.40
2018-02-08T01:38:00.671Z,52.83
2018-02-08T01:40:28.112Z,43.22
2018-02-08T01:42:56.601Z,37.17
2018-02-08T01:45:24.779Z,37.67
2018-02-08T01:47:52.215Z,43.15
2018-02-08T01:50:20.434Z,42.65
2018-02-08T01:52:47.864Z,39.75
2018-02-08T01:55:15.303Z,48.50
2018-02-08T01:57:43.522Z,43.35
2018-02-08T02:00:10.961Z,47.78
2018-02-08T02:02:38.406Z,46.08
2018-02-08T02:05:06.624Z,38.92
2018-02-08T02:07:34.060Z,45.25
2018-02-08T02:10:01.536Z,43.10
2018-02-08T02:12:28.967Z,36.85
2018-02-08T02:14:56.403Z,38.15
2018-02-08T02:17:24.604Z,39.08
2018-02-08T02:19:52.054Z,38.20
2018-02-08T02:22:20.239Z,40.10
2018-02-08T02:24:47.685Z,36.10
2018-02-08T02:27:15.136Z,47.97
2018-02-08T02:29:43.323Z,42.92
2018-02-08T02:32:10.770Z,41.37
2018-02-08T02:34:38.221Z,36.58
2018-02-08T02:37:06.425Z,44.47
2018-02-08T02:39:33.875Z,46.97
2018-02-08T02:42:01.295Z,45.75
2018-02-08T02:44:29.518Z,39.92
2018-02-08T02:46:56.957Z,47.50
2018-02-08T02:49:24.398Z,44.85
2018-02-08T02:51:52.591Z,51.47
2018-02-08T02:54:20.035Z,45.15
2018-02-08T02:56:47.474Z,40.55
2018-02-08T02:59:15.703Z,38.72
2018-02-08T03:01:43.147Z,40.75
2018-02-08T03:04:10.605Z,37.25
2018-02-08T03:06:38.041Z,43.13
2018-02-08T03:09:06.241Z,41.05
2018-02-08T03:11:33.682Z,39.50
2018-02-08T03:14:01.120Z,35.63
2018-02-08T03:16:29.327Z,41.08
2018-02-08T03:18:56.764Z,38.00
2018-02-08T03:21:24.205Z,37.83
2018-02-08T03:23:52.399Z,29.65
2018-02-08T03:26:19.843Z,40.03
2018-02-08T03:28:48.034Z,41.00
2018-02-08T03:31:25.384Z,42.95
2018-02-08T03:33:52.817Z,36.10
2018-02-08T03:36:20.279Z,39.95
2018-02-08T03:38:47.714Z,42.17
2018-02-08T03:41:15.186Z,33.85
2018-02-08T03:43:42.629Z,33.90
2018-02-08T03:46:10.085Z,43.78
2018-02-08T03:48:37.529Z,33.78
2018-02-08T03:51:04.980Z,37.97
2018-02-08T03:53:32.407Z,35.42
2018-02-08T03:56:00.611Z,37.35
2018-02-08T03:58:28.058Z,32.80
2018-02-08T04:00:55.500Z,40.42
2018-02-08T04:03:23.726Z,39.35
2018-02-08T04:05:51.175Z,35.83
2018-02-08T04:08:18.616Z,31.40
2018-02-08T04:10:46.047Z,36.53
2018-02-08T04:13:14.266Z,34.38
2018-02-08T04:15:41.722Z,44.05
2018-02-08T04:18:09.152Z,36.72
2018-02-08T04:20:36.591Z,37.28
2018-02-08T04:23:04.791Z,34.15
2018-02-08T04:25:32.245Z,37.55
2018-02-08T04:27:59.678Z,40.40
2018-02-08T04:30:27.883Z,37.13
2018-02-08T04:32:55.316Z,32.55
2018-02-08T04:35:23.542Z,32.90
2018-02-08T04:37:50.984Z,31.48
2018-02-08T04:40:30.284Z,29.58
2018-02-08T04:43:10.424Z,37.70
2018-02-08T04:45:49.824Z,27.48
2018-02-08T04:48:17.334Z,31.10
2018-02-08T04:50:44.781Z,34.05
2018-02-08T04:53:12.199Z,34.92
2018-02-08T04:55:39.646Z,31.10
2018-02-08T04:58:07.072Z,36.90
2018-02-08T05:00:35.276Z,34.60
2018-02-08T05:03:02.737Z,28.62
2018-02-08T05:05:30.167Z,33.35
2018-02-08T05:07:57.600Z,35.92
2018-02-08T05:10:25.812Z,34.22
2018-02-08T05:12:53.261Z,33.58
2018-02-08T05:15:20.706Z,34.70
2018-02-08T05:17:48.921Z,25.20
2018-02-08T05:20:16.347Z,34.90
2018-02-08T05:22:43.787Z,37.22
2018-02-08T05:25:11.998Z,34.72
2018-02-08T05:27:39.454Z,33.80
2018-02-08T05:30:06.898Z,34.80
2018-02-08T05:32:34.340Z,29.90
2018-02-08T05:35:02.563Z,35.45
2018-02-08T05:37:30.014Z,29.42
2018-02-08T05:39:57.461Z,31.92
2018-02-08T05:42:24.906Z,37.45
2018-02-08T05:44:52.354Z,35.00
2018-02-08T05:47:19.801Z,35.15
2018-02-08T05:49:48.020Z,33.85
2018-02-08T05:52:15.465Z,42.03
2018-02-08T05:54:42.899Z,34.88
2018-02-08T05:57:10.343Z,35.15
2018-02-08T05:59:38.543Z,30.12
2018-02-08T06:02:06.040Z,31.30
2018-02-08T06:04:33.420Z,33.17
2018-02-08T06:07:01.628Z,34.30
2018-02-08T06:09:29.060Z,31.25
2018-02-08T06:11:57.282Z,34.03
2018-02-08T06:14:24.729Z,36.15
2018-02-08T06:16:52.178Z,33.30
2018-02-08T06:19:19.618Z,31.50
2018-02-08T06:21:47.822Z,30.35
2018-02-08T06:24:15.321Z,30.17
2018-02-08T06:26:42.729Z,32.85
2018-02-08T06:29:10.179Z,32.70
2018-02-08T06:31:37.641Z,33.10
2018-02-08T06:34:05.070Z,34.80
2018-02-08T06:36:33.282Z,31.20
2018-02-08T06:39:00.735Z,34.42
2018-02-08T06:41:28.182Z,30.20
2018-02-08T06:43:55.649Z,29.40
2018-02-08T06:46:23.090Z,31.12
2018-02-08T06:48:50.543Z,32.03
2018-02-08T06:51:18.745Z,38.90
2018-02-08T06:53:46.191Z,35.38
2018-02-08T06:56:13.619Z,34.33
2018-02-08T06:58:41.898Z,37.95
2018-02-08T07:01:09.333Z,30.62
2018-02-08T07:03:36.905Z,58.13
2018-02-08T07:06:04.298Z,37.92
2018-02-08T07:08:31.775Z,32.70
2018-02-08T07:10:59.226Z,39.92
2018-02-08T07:13:26.665Z,35.97
2018-02-08T07:15:54.103Z,41.20
2018-02-08T07:18:22.312Z,38.42
2018-02-08T07:20:49.763Z,34.20
2018-02-08T07:23:17.204Z,34.95
2018-02-08T07:25:44.647Z,31.87
2018-02-08T07:28:12.859Z,32.30
2018-02-08T07:30:40.283Z,34.78
2018-02-08T07:33:07.738Z,32.58
2018-02-08T07:35:35.978Z,36.88
2018-02-08T07:38:03.372Z,35.83
2018-02-08T07:40:31.571Z,37.28
2018-02-08T07:42:59.008Z,40.15
2018-02-08T07:45:26.442Z,33.33
2018-02-08T07:47:54.653Z,33.03
2018-02-08T07:50:22.078Z,31.25
2018-02-08T07:52:50.296Z,29.60
2018-02-08T07:55:17.724Z,37.60
2018-02-08T07:57:45.154Z,32.88
2018-02-08T08:00:12.605Z,30.80
2018-02-08T08:02:40.023Z,33.25
2018-02-08T08:05:07.454Z,34.33
2018-02-08T08:07:34.904Z,34.60
2018-02-08T08:10:03.140Z,30.12
2018-02-08T08:12:30.556Z,42.08
2018-02-08T08:14:58.029Z,32.55
2018-02-08T08:17:25.466Z,29.75
2018-02-08T08:19:52.905Z,35.88
2018-02-08T08:22:21.123Z,41.75
2018-02-08T08:24:48.548Z,33.67
2018-02-08T08:27:15.984Z,33.67
2018-02-08T08:29:44.187Z,33.67
2018-02-08T08:32:11.642Z,31.65
2018-02-08T08:34:39.825Z,28.90
2018-02-08T08:37:07.257Z,31.12
2018-02-08T08:39:35.473Z,37.25
2018-02-08T08:42:02.903Z,38.85
2018-02-08T08:44:30.358Z,33.90
2018-02-08T08:46:57.795Z,41.17
2018-02-08T08:49:26.006Z,35.03
2018-02-08T08:51:53.428Z,38.05
2018-02-08T08:54:21.648Z,41.13
2018-02-08T08:56:49.102Z,37.17
2018-02-08T08:59:16.531Z,35.15
2018-02-08T09:01:43.965Z,34.45
2018-02-08T09:04:12.188Z,34.67
2018-02-08T09:06:39.623Z,37.25
2018-02-08T09:09:07.078Z,41.05
2018-02-08T09:11:34.508Z,43.13
2018-02-08T09:14:01.963Z,36.92
2018-02-08T09:16:29.407Z,34.65
2018-02-08T09:18:56.844Z,39.40
2018-02-08T09:21:24.306Z,44.10
2018-02-08T09:23:51.746Z,39.22
2018-02-08T09:26:19.220Z,42.97
2018-02-08T09:28:46.643Z,42.65
2018-02-08T09:31:14.092Z,42.40
2018-02-08T09:33:41.544Z,39.30
2018-02-08T09:36:09.003Z,48.42
2018-02-08T09:38:37.223Z,41.83
2018-02-08T09:41:04.682Z,41.30
2018-02-08T09:43:32.123Z,34.47
2018-02-08T09:45:59.591Z,30.48
2018-02-08T09:48:27.019Z,36.35
2018-02-08T09:50:54.465Z,37.13
2018-02-08T09:53:21.900Z,39.67
2018-02-08T09:55:49.359Z,34.20
2018-02-08T09:58:17.564Z,34.00
2018-02-08T10:00:45.021Z,38.88
2018-02-08T10:03:12.447Z,34.88
2018-02-08T10:05:40.716Z,32.55
2018-02-08T10:08:08.143Z,43.53
2018-02-08T10:10:35.613Z,35.83
2018-02-08T10:13:03.043Z,35.92
2018-02-08T10:15:30.513Z,40.58
2018-02-08T10:17:57.947Z,30.95
2018-02-08T10:20:25.400Z,37.70
2018-02-08T10:22:52.878Z,34.75
2018-02-08T10:25:21.063Z,40.63
2018-02-08T10:27:48.492Z,44.22
2018-02-08T10:30:15.941Z,36.90
2018-02-08T10:32:43.393Z,36.92
2018-02-08T10:35:10.844Z,39.25
2018-02-08T10:37:39.053Z,38.78
2018-02-08T10:40:07.316Z,40.25
2018-02-08T10:42:34.757Z,51.95
2018-02-08T10:45:02.219Z,41.92
2018-02-08T10:47:29.670Z,39.40
2018-02-08T10:49:57.123Z,39.65
2018-02-08T10:52:25.359Z,40.80
2018-02-08T10:54:52.797Z,34.55
2018-02-08T10:57:20.247Z,51.15
2018-02-08T10:59:47.687Z,39.92
2018-02-08T11:02:15.131Z,44.55
2018-02-08T11:04:42.567Z,38.85
2018-02-08T11:07:10.775Z,48.10
2018-02-08T11:09:38.215Z,44.58
2018-02-08T11:12:06.437Z,39.65
2018-02-08T11:14:33.894Z,45.90
2018-02-08T11:19:35.412Z,42.03
2018-02-08T11:22:03.640Z,40.65
2018-02-08T11:24:31.836Z,48.97
2018-02-08T11:26:59.284Z,38.08
2018-02-08T11:29:26.730Z,45.60
2018-02-08T11:31:54.173Z,52.22
2018-02-08T11:34:21.629Z,47.05
2018-02-08T11:36:49.074Z,39.70
2018-02-08T11:39:16.507Z,46.83
2018-02-08T11:41:44.761Z,46.47
2018-02-08T11:44:12.204Z,40.97
2018-02-08T11:46:39.652Z,38.20
2018-02-08T11:49:07.877Z,49.17
2018-02-08T11:51:36.092Z,37.97
2018-02-08T11:54:03.537Z,49.13
2018-02-08T11:56:31.009Z,40.92
2018-02-08T11:58:58.459Z,42.00
2018-02-08T12:01:25.931Z,45.95
2018-02-08T12:03:53.374Z,47.10
2018-02-08T12:06:20.837Z,50.40
2018-02-08T12:08:49.037Z,42.83
2018-02-08T12:11:16.510Z,50.20
2018-02-08T12:13:43.949Z,51.60
2018-02-08T12:16:11.392Z,50.90
2018-02-08T12:18:38.852Z,40.83
2018-02-08T12:21:06.290Z,45.97
2018-02-08T12:23:33.728Z,45.22
2018-02-08T12:26:01.175Z,42.23
2018-02-08T12:28:29.369Z,44.93
2018-02-08T12:30:56.820Z,41.73
2018-02-08T12:33:24.297Z,47.72
2018-02-08T12:35:51.746Z,42.87
2018-02-08T12:38:19.223Z,40.97
2018-02-08T12:40:46.655Z,41.30
2018-02-08T12:43:14.108Z,39.83
2018-02-08T12:45:41.540Z,43.67
2018-02-08T12:48:09.755Z,56.87
2018-02-08T12:50:37.209Z,47.37
2018-02-08T12:53:04.645Z,35.73
2018-02-08T12:55:32.079Z,49.17
2018-02-08T12:58:00.315Z,39.80
2018-02-08T13:00:28.536Z,52.30
2018-02-08T13:02:56.734Z,44.77
2018-02-08T13:05:24.176Z,46.73
2018-02-08T13:07:52.371Z,46.77
2018-02-08T13:10:19.807Z,45.93
2018-02-08T13:12:47.255Z,43.93
2018-02-08T13:15:15.460Z,41.50
2018-02-08T13:17:42.913Z,38.57
2018-02-08T13:20:10.354Z,45.10
2018-02-08T13:22:38.602Z,45.00
2018-02-08T13:25:06.039Z,45.07
2018-02-08T13:27:33.503Z,41.13
2018-02-08T13:30:00.936Z,52.10
2018-02-08T13:32:28.375Z,43.17
2018-02-08T13:34:55.827Z,36.30
2018-02-08T13:37:24.043Z,40.67
2018-02-08T13:40:06.374Z,38.70
2018-02-08T13:42:33.805Z,40.10
2018-02-08T13:45:01.271Z,35.80
2018-02-08T13:47:43.637Z,40.80
2018-02-08T13:50:16.881Z,45.83
2018-02-08T13:53:01.997Z,49.70
2018-02-08T13:55:29.888Z,46.20
2018-02-08T13:58:18.027Z,47.57
2018-02-08T14:00:55.362Z,47.73
2018-02-08T14:03:22.802Z,49.77
2018-02-08T14:05:50.236Z,49.70
2018-02-08T14:08:17.667Z,45.77
2018-02-08T14:10:45.124Z,45.70
2018-02-08T14:13:12.552Z,42.20
2018-02-08T14:15:40.790Z,43.93
2018-02-08T14:18:08.686Z,44.50
2018-02-08T14:20:36.909Z,44.43
2018-02-08T14:23:04.341Z,48.80
2018-02-08T14:25:32.548Z,42.80
2018-02-08T14:27:59.992Z,39.57
2018-02-08T14:30:27.446Z,34.07
2018-02-08T14:32:54.877Z,39.63
2018-02-08T14:35:23.099Z,46.10
2018-02-08T14:37:50.529Z,43.40
2018-02-08T14:40:17.975Z,40.60
2018-02-08T14:42:46.188Z,42.80
2018-02-08T14:45:13.649Z,45.57
2018-02-08T14:47:41.073Z,41.57
2018-02-08T14:50:08.547Z,38.97
2018-02-08T14:52:35.985Z,42.37
2018-02-08T14:55:03.443Z,39.63
2018-02-08T14:57:31.659Z,41.10
2018-02-08T14:59:59.126Z,42.30
2018-02-08T15:02:26.578Z,33.13
2018-02-08T15:04:54.032Z,43.33
2018-02-08T15:07:21.477Z,39.63
2018-02-08T15:09:48.935Z,46.07
2018-02-08T15:12:16.395Z,32.10
2018-02-08T15:14:43.853Z,44.20
2018-02-08T15:17:11.302Z,45.85
2018-02-08T15:19:38.766Z,39.03
2018-02-08T15:22:06.207Z,34.70
2018-02-08T15:24:33.648Z,35.70
2018-02-08T15:27:01.874Z,37.30
2018-02-08T15:29:30.076Z,45.33
2018-02-08T15:31:57.560Z,30.77
2018-02-08T15:34:25.796Z,36.67
2018-02-08T15:36:53.255Z,41.20
2018-02-08T15:39:20.711Z,41.83
2018-02-08T15:41:48.153Z,42.80
2018-02-08T15:44:15.606Z,42.28
2018-02-08T15:46:43.058Z,42.73
2018-02-08T15:49:10.493Z,41.50
2018-02-08T15:51:37.947Z,40.13
2018-02-08T15:54:05.381Z,42.13
2018-02-08T15:56:33.597Z,39.63
2018-02-08T15:59:01.031Z,45.63
2018-02-08T16:01:28.460Z,39.53
2018-02-08T16:03:56.663Z,45.22
2018-02-08T16:06:24.130Z,42.67
2018-02-08T16:08:51.571Z,43.87
2018-02-08T16:11:19.022Z,48.30
2018-02-08T16:13:46.458Z,44.97
2018-02-08T16:16:13.918Z,44.80
2018-02-08T16:18:42.147Z,44.42
2018-02-08T16:21:09.603Z,43.00
2018-02-08T16:23:37.040Z,39.22
2018-02-08T16:26:04.498Z,49.55
2018-02-08T16:28:31.945Z,44.97
2018-02-08T16:30:59.400Z,37.15
2018-02-08T16:33:26.827Z,43.53
2018-02-08T16:35:54.268Z,44.90
2018-02-08T16:38:21.722Z,53.22
2018-02-08T16:40:49.169Z,49.63
2018-02-08T16:43:16.616Z,45.87
2018-02-08T16:45:44.060Z,40.35
2018-02-08T16:48:11.507Z,42.53
2018-02-08T16:50:39.011Z,52.88
2018-02-08T16:53:06.451Z,42.95
2018-02-08T16:55:33.914Z,42.95
2018-02-08T16:58:01.389Z,47.25
2018-02-08T17:00:28.831Z,42.53
2018-02-08T17:02:56.285Z,44.83
2018-02-08T17:05:23.747Z,46.20
2018-02-08T17:07:51.205Z,52.72
2018-02-08T17:10:18.660Z,44.88
2018-02-08T17:12:46.115Z,43.40
2018-02-08T17:15:13.558Z,48.70
2018-02-08T17:17:41.022Z,46.28
2018-02-08T17:20:08.472Z,39.42
2018-02-08T17:22:35.921Z,56.72
2018-02-08T17:25:03.362Z,53.40
2018-02-08T17:27:30.799Z,51.42
2018-02-08T17:29:59.013Z,41.67
2018-02-08T17:32:26.467Z,47.80
2018-02-08T17:34:54.142Z,55.40
2018-02-08T17:37:21.679Z,43.87
2018-02-08T17:39:49.176Z,49.42
2018-02-08T17:42:16.663Z,46.10
2018-02-08T17:44:44.098Z,49.85
2018-02-08T17:47:11.562Z,56.47
2018-02-08T17:49:39.012Z,53.28
2018-02-08T17:52:06.488Z,47.92
2018-02-08T17:54:33.966Z,43.13
2018-02-08T17:57:02.184Z,44.30
2018-02-08T17:59:29.627Z,49.22
2018-02-08T18:01:57.075Z,44.08
2018-02-08T18:04:24.522Z,35.90
2018-02-08T18:06:51.981Z,41.53
2018-02-08T18:09:19.424Z,51.40
2018-02-08T18:11:47.678Z,46.83
2018-02-08T18:14:15.143Z,50.20
2018-02-08T18:16:42.578Z,46.72
2018-02-08T18:19:10.030Z,48.45
2018-02-08T18:21:37.478Z,50.10
2018-02-08T18:24:04.936Z,47.92
2018-02-08T18:26:32.371Z,47.50
2018-02-08T18:28:59.820Z,46.92
2018-02-08T18:31:27.260Z,55.65
2018-02-08T18:33:55.482Z,51.45
2018-02-08T18:36:22.912Z,44.70
2018-02-08T18:38:50.427Z,49.50
2018-02-08T18:41:17.972Z,48.03
2018-02-08T18:43:45.428Z,47.83
2018-02-08T18:46:12.866Z,48.47
2018-02-08T18:48:40.326Z,58.75
2018-02-08T18:51:07.765Z,53.03
2018-02-08T18:53:35.216Z,60.28
2018-02-08T18:56:02.656Z,58.85
2018-02-08T18:58:30.888Z,48.20
2018-02-08T19:00:58.390Z,56.03
2018-02-08T19:03:26.598Z,45.20
2018-02-08T19:05:54.055Z,53.00
2018-02-08T19:08:21.859Z,54.22
2018-02-08T19:10:49.288Z,59.60
2018-02-08T19:13:16.758Z,63.05
2018-02-08T19:15:44.202Z,52.25
2018-02-08T19:18:11.653Z,47.03
2018-02-08T19:20:39.107Z,44.55
2018-02-08T19:23:06.585Z,50.22
2018-02-08T19:25:34.040Z,49.45
2018-02-08T19:28:01.515Z,42.08
2018-02-08T19:30:28.982Z,47.30
2018-02-08T19:32:56.450Z,51.30
2018-02-08T19:35:24.761Z,49.85
2018-02-08T19:37:52.310Z,49.22
2018-02-08T19:40:19.769Z,49.90
2018-02-08T19:42:47.231Z,50.53
2018-02-08T19:45:14.670Z,52.05
2018-02-08T19:47:42.891Z,80.12
2018-02-08T19:50:10.343Z,64.22
2018-02-08T19:52:37.800Z,52.83
2018-02-08T19:55:05.282Z,65.72
2018-02-08T19:57:32.741Z,58.95
2018-02-08T20:00:00.225Z,48.42
2018-02-08T20:02:28.514Z,53.15
2018-02-08T20:04:56.836Z,51.55
2018-02-08T20:07:24.284Z,53.40
2018-02-08T20:09:51.754Z,52.60
2018-02-08T20:12:19.243Z,53.05
2018-02-08T20:15:03.518Z,48.80
2018-02-08T20:17:30.960Z,57.67
2018-02-08T20:19:59.336Z,54.33
2018-02-08T20:22:27.650Z,49.88
2018-02-08T20:24:55.139Z,54.83
2018-02-08T20:27:22.594Z,48.92
2018-02-08T20:29:50.055Z,48.15
2018-02-08T20:32:17.572Z,53.50
2018-02-08T20:34:45.777Z,45.35
2018-02-08T20:37:13.221Z,61.40
2018-02-08T20:39:40.673Z,55.47
2018-02-08T20:42:08.260Z,51.97
2018-02-08T20:44:35.708Z,43.72
2018-02-08T20:47:03.163Z,48.13
2018-02-08T20:49:30.629Z,62.70
2018-02-08T20:51:58.098Z,57.53
2018-02-08T20:54:25.553Z,51.33
2018-02-08T20:56:53.006Z,47.90
2018-02-08T20:59:20.479Z,55.12
2018-02-08T21:01:47.947Z,47.13
2018-02-08T21:04:15.402Z,50.28
2018-02-08T21:06:42.852Z,56.37
2018-02-08T21:09:10.337Z,64.28
2018-02-08T21:11:38.564Z,58.85
2018-02-08T21:14:06.014Z,66.53
2018-02-08T21:16:33.482Z,56.85
2018-02-08T21:19:00.953Z,46.72
2018-02-08T21:21:28.418Z,58.67
2018-02-08T21:23:55.877Z,56.17
2018-02-08T21:26:23.324Z,58.50
2018-02-08T21:28:50.770Z,57.28
2018-02-08T21:31:18.236Z,61.45
2018-02-08T21:33:45.687Z,58.10
2018-02-08T21:36:13.130Z,56.20
2018-02-08T21:38:40.573Z,58.22
2018-02-08T21:41:08.046Z,67.90
2018-02-08T21:43:35.503Z,53.92
2018-02-08T21:46:02.962Z,62.13
2018-02-08T21:48:30.414Z,51.25
2018-02-08T21:50:57.874Z,51.22
2018-02-08T21:53:25.325Z,66.65
2018-02-08T21:55:52.786Z,57.55
2018-02-08T21:58:20.221Z,50.53
2018-02-08T22:00:47.674Z,50.50
2018-02-08T22:03:15.123Z,60.70
2018-02-08T22:05:43.345Z,58.63
2018-02-08T22:08:10.780Z,44.65
2018-02-08T22:10:38.216Z,57.60
2018-02-08T22:13:05.665Z,55.92
2018-02-08T22:15:33.889Z,51.08
2018-02-08T22:18:01.326Z,58.28
2018-02-08T22:20:28.793Z,57.03
2018-02-08T22:22:56.273Z,59.85
2018-02-08T22:25:23.728Z,58.42
2018-02-08T22:27:51.181Z,60.45
2018-02-08T22:30:18.638Z,55.60
2018-02-08T22:32:46.111Z,52.75
2018-02-08T22:35:13.554Z,52.83
2018-02-08T22:37:40.996Z,62.67
2018-02-08T22:40:08.450Z,58.10
2018-02-08T22:42:35.891Z,59.30
2018-02-08T22:45:03.337Z,64.93
2018-02-08T22:47:31.537Z,50.97
2018-02-08T22:49:58.972Z,68.53
2018-02-08T22:52:26.415Z,52.40
2018-02-08T22:54:54.624Z,51.42
2018-02-08T22:57:22.079Z,55.12
2018-02-08T22:59:49.512Z,57.62
2018-02-08T23:02:16.948Z,58.45
2018-02-08T23:04:45.164Z,59.40
2018-02-08T23:07:12.612Z,71.57
2018-02-08T23:09:40.048Z,60.00
2018-02-08T23:12:08.259Z,56.13
2018-02-08T23:14:35.687Z,63.90
2018-02-08T23:17:03.891Z,47.42
2018-02-08T23:19:31.327Z,55.20
2018-02-08T23:21:58.787Z,58.53
2018-02-08T23:24:26.224Z,66.60
2018-02-08T23:26:54.432Z,59.08
2018-02-08T23:29:21.866Z,56.33
2018-02-08T23:31:50.076Z,52.67
2018-02-08T23:34:17.518Z,54.63
2018-02-08T23:36:44.957Z,55.75
2018-02-08T23:39:13.161Z,63.70
2018-02-08T23:41:40.606Z,64.78
2018-02-08T23:44:08.032Z,61.67
2018-02-08T23:46:36.254Z,55.40
2018-02-08T23:49:03.689Z,59.28
2018-02-08T23:51:31.131Z,64.22
2018-02-08T23:53:59.393Z,52.75
2018-02-08T23:56:26.787Z,54.17
2018-02-08T23:58:54.220Z,59.58
